sensor_id;sensor_type;location;lat;lon;timestamp;pressure;altitude;pressure_sealevel;temperature;humidity
69535;BME280;56754;51.568;5.048;2024-03-23T00:51:56;101103.44;;;12.85;70.16
69535;BME280;56754;51.568;5.048;2024-03-23T00:57:24;101099.00;;;12.81;69.73
69535;BME280;56754;51.568;5.048;2024-03-23T00:59:49;101088.59;;;12.79;71.00
69535;BME280;56754;51.568;5.048;2024-03-23T01:02:15;101086.22;;;12.78;70.28
69535;BME280;56754;51.568;5.048;2024-03-23T01:04:46;101078.81;;;12.74;70.22
69535;BME280;56754;51.568;5.048;2024-03-23T01:07:13;101068.09;;;12.74;70.92
69535;BME280;56754;51.568;5.048;2024-03-23T01:09:38;101066.84;;;12.72;70.50
69535;BME280;56754;51.568;5.048;2024-03-23T01:12:05;101074.41;;;12.70;70.13
69535;BME280;56754;51.568;5.048;2024-03-23T01:14:30;101073.47;;;12.66;70.00
69535;BME280;56754;51.568;5.048;2024-03-23T01:16:55;101070.31;;;12.64;70.45
69535;BME280;56754;51.568;5.048;2024-03-23T01:19:20;101074.44;;;12.61;70.00
69535;BME280;56754;51.568;5.048;2024-03-23T01:21:46;101073.16;;;12.59;69.97
69535;BME280;56754;51.568;5.048;2024-03-23T01:24:11;101062.28;;;12.55;69.77
69535;BME280;56754;51.568;5.048;2024-03-23T01:26:36;101060.25;;;12.52;69.79
69535;BME280;56754;51.568;5.048;2024-03-23T01:29:02;101064.34;;;12.49;69.80
69535;BME280;56754;51.568;5.048;2024-03-23T01:31:27;101062.28;;;12.46;69.50
69535;BME280;56754;51.568;5.048;2024-03-23T01:33:52;101063.69;;;12.44;69.49
69535;BME280;56754;51.568;5.048;2024-03-23T01:36:18;101070.47;;;12.41;69.43
69535;BME280;56754;51.568;5.048;2024-03-23T01:38:43;101063.06;;;12.38;69.65
69535;BME280;56754;51.568;5.048;2024-03-23T01:41:08;101061.78;;;12.36;69.56
69535;BME280;56754;51.568;5.048;2024-03-23T01:43:34;101032.16;;;12.32;69.18
69535;BME280;56754;51.568;5.048;2024-03-23T01:46:00;101032.78;;;12.29;69.54
69535;BME280;56754;51.568;5.048;2024-03-23T01:48:25;101038.47;;;12.27;69.87
69535;BME280;56754;51.568;5.048;2024-03-23T01:50:50;101026.16;;;12.26;69.84
69535;BME280;56754;51.568;5.048;2024-03-23T01:53:16;101016.88;;;12.24;69.83
69535;BME280;56754;51.568;5.048;2024-03-23T01:55:41;101020.66;;;12.23;70.21
69535;BME280;56754;51.568;5.048;2024-03-23T01:58:06;101012.13;;;12.21;70.42
69535;BME280;56754;51.568;5.048;2024-03-23T02:00:32;101009.00;;;12.19;70.21
69535;BME280;56754;51.568;5.048;2024-03-23T02:03:00;101002.38;;;12.16;70.11
69535;BME280;56754;51.568;5.048;2024-03-23T02:05:25;101002.69;;;12.15;69.85
69535;BME280;56754;51.568;5.048;2024-03-23T02:07:50;101007.59;;;12.13;70.23
69535;BME280;56754;51.568;5.048;2024-03-23T02:10:16;101007.09;;;12.11;70.55
69535;BME280;56754;51.568;5.048;2024-03-23T02:12:41;101003.16;;;12.08;70.61
69535;BME280;56754;51.568;5.048;2024-03-23T02:15:07;100991.66;;;12.07;70.49
69535;BME280;56754;51.568;5.048;2024-03-23T02:17:34;100988.50;;;12.05;70.92
69535;BME280;56754;51.568;5.048;2024-03-23T02:19:59;100996.38;;;12.02;69.93
69535;BME280;56754;51.568;5.048;2024-03-23T02:22:25;100993.22;;;12.00;70.23
69535;BME280;56754;51.568;5.048;2024-03-23T02:24:50;100999.19;;;11.97;70.32
69535;BME280;56754;51.568;5.048;2024-03-23T02:27:16;100997.16;;;11.94;70.39
69535;BME280;56754;51.568;5.048;2024-03-23T02:29:41;100997.00;;;11.90;70.86
69535;BME280;56754;51.568;5.048;2024-03-23T02:32:07;100999.19;;;11.88;70.97
69535;BME280;56754;51.568;5.048;2024-03-23T02:34:32;101000.59;;;11.86;70.17
69535;BME280;56754;51.568;5.048;2024-03-23T02:36:58;101001.19;;;11.82;70.74
69535;BME280;56754;51.568;5.048;2024-03-23T02:39:23;101003.41;;;11.80;70.83
69535;BME280;56754;51.568;5.048;2024-03-23T02:41:48;101001.03;;;11.79;70.39
69535;BME280;56754;51.568;5.048;2024-03-23T02:44:33;101008.59;;;11.77;70.90
69535;BME280;56754;51.568;5.048;2024-03-23T02:46:58;101006.25;;;11.75;70.32
69535;BME280;56754;51.568;5.048;2024-03-23T02:49:23;101003.41;;;11.72;70.05
69535;BME280;56754;51.568;5.048;2024-03-23T02:51:49;100996.78;;;11.69;71.23
69535;BME280;56754;51.568;5.048;2024-03-23T02:54:14;101008.91;;;11.67;70.68
69535;BME280;56754;51.568;5.048;2024-03-23T02:56:40;100994.56;;;11.63;70.74
69535;BME280;56754;51.568;5.048;2024-03-23T02:59:07;101004.00;;;11.60;70.72
69535;BME280;56754;51.568;5.048;2024-03-23T03:01:32;101001.63;;;11.58;71.21
69535;BME280;56754;51.568;5.048;2024-03-23T03:03:57;101004.94;;;11.55;70.73
69535;BME280;56754;51.568;5.048;2024-03-23T03:06:24;101006.66;;;11.51;71.00
69535;BME280;56754;51.568;5.048;2024-03-23T03:08:50;100997.34;;;11.49;70.73
69535;BME280;56754;51.568;5.048;2024-03-23T03:11:15;101001.44;;;11.46;71.47
69535;BME280;56754;51.568;5.048;2024-03-23T03:13:40;101002.06;;;11.43;71.32
69535;BME280;56754;51.568;5.048;2024-03-23T03:16:09;101001.56;;;11.41;71.04
69535;BME280;56754;51.568;5.048;2024-03-23T03:18:53;100995.75;;;11.39;71.53
69535;BME280;56754;51.568;5.048;2024-03-23T03:21:19;100996.38;;;11.36;71.92
69535;BME280;56754;51.568;5.048;2024-03-23T03:23:44;101001.25;;;11.34;71.82
69535;BME280;56754;51.568;5.048;2024-03-23T03:26:09;100999.19;;;11.31;71.92
69535;BME280;56754;51.568;5.048;2024-03-23T03:28:35;101001.38;;;11.29;71.96
69535;BME280;56754;51.568;5.048;2024-03-23T03:31:00;100994.75;;;11.26;71.67
69535;BME280;56754;51.568;5.048;2024-03-23T03:33:28;100990.81;;;11.24;72.50
69535;BME280;56754;51.568;5.048;2024-03-23T03:35:54;100994.09;;;11.21;71.78
69535;BME280;56754;51.568;5.048;2024-03-23T03:38:38;100993.63;;;11.19;71.64
69535;BME280;56754;51.568;5.048;2024-03-23T03:41:04;100991.88;;;11.14;72.09
69535;BME280;56754;51.568;5.048;2024-03-23T03:43:29;100986.03;;;11.12;72.09
69535;BME280;56754;51.568;5.048;2024-03-23T03:45:57;100979.44;;;11.09;71.57
69535;BME280;56754;51.568;5.048;2024-03-23T03:48:23;100976.28;;;11.07;72.25
69535;BME280;56754;51.568;5.048;2024-03-23T03:50:49;100983.81;;;11.05;72.57
69535;BME280;56754;51.568;5.048;2024-03-23T03:53:14;100982.53;;;11.03;72.67
69535;BME280;56754;51.568;5.048;2024-03-23T03:55:39;100979.06;;;11.02;72.45
69535;BME280;56754;51.568;5.048;2024-03-23T03:58:05;100973.25;;;11.00;71.82
69535;BME280;56754;51.568;5.048;2024-03-23T04:00:30;100970.41;;;10.97;72.21
69535;BME280;56754;51.568;5.048;2024-03-23T04:02:56;100968.03;;;10.95;72.22
69535;BME280;56754;51.568;5.048;2024-03-23T04:05:22;100967.56;;;10.93;71.98
69535;BME280;56754;51.568;5.048;2024-03-23T04:07:47;100962.53;;;10.91;72.30
69535;BME280;56754;51.568;5.048;2024-03-23T04:10:13;100962.03;;;10.89;72.24
69535;BME280;56754;51.568;5.048;2024-03-23T04:12:38;100958.09;;;10.87;71.99
69535;BME280;56754;51.568;5.048;2024-03-23T04:15:04;100962.16;;;10.84;72.57
69535;BME280;56754;51.568;5.048;2024-03-23T04:17:29;100975.84;;;10.83;72.17
69535;BME280;56754;51.568;5.048;2024-03-23T04:19:55;100975.38;;;10.81;72.17
69535;BME280;56754;51.568;5.048;2024-03-23T04:22:21;100978.31;;;10.79;72.46
69535;BME280;56754;51.568;5.048;2024-03-23T04:24:46;100977.88;;;10.77;72.30
69535;BME280;56754;51.568;5.048;2024-03-23T04:27:11;100986.19;;;10.76;72.52
69535;BME280;56754;51.568;5.048;2024-03-23T04:29:37;100978.47;;;10.74;73.00
69535;BME280;56754;51.568;5.048;2024-03-23T04:32:02;100977.97;;;10.72;72.43
69535;BME280;56754;51.568;5.048;2024-03-23T04:34:27;100975.59;;;10.70;72.09
69535;BME280;56754;51.568;5.048;2024-03-23T04:36:53;100979.38;;;10.69;73.31
69535;BME280;56754;51.568;5.048;2024-03-23T04:39:18;100970.88;;;10.67;72.25
69535;BME280;56754;51.568;5.048;2024-03-23T04:41:43;100968.81;;;10.64;72.59
69535;BME280;56754;51.568;5.048;2024-03-23T04:44:08;100966.13;;;10.64;72.60
69535;BME280;56754;51.568;5.048;2024-03-23T04:46:34;100958.44;;;10.63;72.28
69535;BME280;56754;51.568;5.048;2024-03-23T04:48:59;100961.09;;;10.63;72.65
69535;BME280;56754;51.568;5.048;2024-03-23T04:51:43;100970.53;;;10.60;72.48
69535;BME280;56754;51.568;5.048;2024-03-23T04:54:08;100963.59;;;10.59;73.04
69535;BME280;56754;51.568;5.048;2024-03-23T04:56:34;100973.50;;;10.59;72.90
69535;BME280;56754;51.568;5.048;2024-03-23T04:59:05;100958.88;;;10.56;72.65
69535;BME280;56754;51.568;5.048;2024-03-23T05:01:31;100967.97;;;10.55;72.62
69535;BME280;56754;51.568;5.048;2024-03-23T05:03:57;100965.13;;;10.52;72.65
69535;BME280;56754;51.568;5.048;2024-03-23T05:06:23;100972.34;;;10.51;72.73
69535;BME280;56754;51.568;5.048;2024-03-23T05:08:48;100968.13;;;10.50;72.94
69535;BME280;56754;51.568;5.048;2024-03-23T05:11:13;100970.28;;;10.48;72.44
69535;BME280;56754;51.568;5.048;2024-03-23T05:13:39;100964.47;;;10.46;71.48
69535;BME280;56754;51.568;5.048;2024-03-23T05:16:04;100965.56;;;10.45;72.17
69535;BME280;56754;51.568;5.048;2024-03-23T05:18:30;100963.97;;;10.44;72.52
69535;BME280;56754;51.568;5.048;2024-03-23T05:20:57;100959.72;;;10.43;72.87
69535;BME280;56754;51.568;5.048;2024-03-23T05:23:24;100962.72;;;10.41;72.25
69535;BME280;56754;51.568;5.048;2024-03-23T05:25:49;100956.09;;;10.39;72.45
69535;BME280;56754;51.568;5.048;2024-03-23T05:28:15;100961.44;;;10.39;73.15
69535;BME280;56754;51.568;5.048;2024-03-23T05:30:43;100962.50;;;10.38;72.65
69535;BME280;56754;51.568;5.048;2024-03-23T05:33:08;100970.53;;;10.38;71.97
69535;BME280;56754;51.568;5.048;2024-03-23T05:35:33;100974.28;;;10.37;73.14
69535;BME280;56754;51.568;5.048;2024-03-23T05:37:59;100965.78;;;10.35;73.24
69535;BME280;56754;51.568;5.048;2024-03-23T05:40:52;100962.03;;;10.36;73.14
69535;BME280;56754;51.568;5.048;2024-03-23T05:43:17;100963.44;;;10.33;72.42
69535;BME280;56754;51.568;5.048;2024-03-23T05:45:43;100960.75;;;10.33;72.37
69535;BME280;56754;51.568;5.048;2024-03-23T05:48:08;100961.53;;;10.34;72.85
69535;BME280;56754;51.568;5.048;2024-03-23T05:50:33;100956.97;;;10.34;72.68
69535;BME280;56754;51.568;5.048;2024-03-23T05:52:58;100968.47;;;10.35;72.03
69535;BME280;56754;51.568;5.048;2024-03-23T05:55:24;100967.38;;;10.36;72.32
69535;BME280;56754;51.568;5.048;2024-03-23T05:57:49;100963.13;;;10.35;72.18
69535;BME280;56754;51.568;5.048;2024-03-23T06:00:14;100965.00;;;10.34;71.69
69535;BME280;56754;51.568;5.048;2024-03-23T06:02:40;100965.50;;;10.36;72.31
69535;BME280;56754;51.568;5.048;2024-03-23T06:05:05;100969.28;;;10.35;72.34
69535;BME280;56754;51.568;5.048;2024-03-23T06:07:30;100978.06;;;10.36;71.30
69535;BME280;56754;51.568;5.048;2024-03-23T06:09:56;100978.84;;;10.36;71.13
69535;BME280;56754;51.568;5.048;2024-03-23T06:12:22;100984.69;;;10.38;71.05
69535;BME280;56754;51.568;5.048;2024-03-23T06:14:47;100976.34;;;10.40;71.03
69535;BME280;56754;51.568;5.048;2024-03-23T06:17:12;100977.94;;;10.41;70.86
69535;BME280;56754;51.568;5.048;2024-03-23T06:19:38;100974.47;;;10.40;70.29
69535;BME280;56754;51.568;5.048;2024-03-23T06:22:03;100974.47;;;10.40;70.51
69535;BME280;56754;51.568;5.048;2024-03-23T06:24:28;100978.75;;;10.41;70.56
69535;BME280;56754;51.568;5.048;2024-03-23T06:26:53;100985.34;;;10.44;69.62
69535;BME280;56754;51.568;5.048;2024-03-23T06:29:24;100975.16;;;10.46;69.48
69535;BME280;56754;51.568;5.048;2024-03-23T06:31:53;100962.88;;;10.45;70.13
69535;BME280;56754;51.568;5.048;2024-03-23T06:34:19;100974.06;;;10.47;69.44
69535;BME280;56754;51.568;5.048;2024-03-23T06:36:44;100964.94;;;10.48;69.72
69535;BME280;56754;51.568;5.048;2024-03-23T06:39:09;100967.31;;;10.50;69.78
69535;BME280;56754;51.568;5.048;2024-03-23T06:41:37;100972.84;;;10.53;69.82
69535;BME280;56754;51.568;5.048;2024-03-23T06:44:02;100976.00;;;10.55;69.12
69535;BME280;56754;51.568;5.048;2024-03-23T06:46:28;100967.97;;;10.55;69.30
69535;BME280;56754;51.568;5.048;2024-03-23T06:48:53;100987.97;;;10.58;68.66
69535;BME280;56754;51.568;5.048;2024-03-23T06:51:18;100986.06;;;10.58;69.94
69535;BME280;56754;51.568;5.048;2024-03-23T06:53:44;100982.00;;;10.61;69.58
69535;BME280;56754;51.568;5.048;2024-03-23T06:56:09;100987.06;;;10.62;69.09
69535;BME280;56754;51.568;5.048;2024-03-23T06:58:34;100982.50;;;10.63;68.77
69535;BME280;56754;51.568;5.048;2024-03-23T07:00:59;100977.16;;;10.63;68.14
69535;BME280;56754;51.568;5.048;2024-03-23T07:03:25;100976.34;;;10.62;68.46
69535;BME280;56754;51.568;5.048;2024-03-23T07:05:50;100980.59;;;10.63;68.39
69535;BME280;56754;51.568;5.048;2024-03-23T07:08:15;100980.59;;;10.63;69.13
69535;BME280;56754;51.568;5.048;2024-03-23T07:10:41;100983.78;;;10.65;68.89
69535;BME280;56754;51.568;5.048;2024-03-23T07:13:06;100986.13;;;10.67;68.83
69535;BME280;56754;51.568;5.048;2024-03-23T07:15:32;100985.06;;;10.68;67.91
69535;BME280;56754;51.568;5.048;2024-03-23T07:17:57;100986.91;;;10.67;68.04
69535;BME280;56754;51.568;5.048;2024-03-23T07:20:23;100988.50;;;10.68;68.49
69535;BME280;56754;51.568;5.048;2024-03-23T07:22:48;100987.41;;;10.69;68.99
69535;BME280;56754;51.568;5.048;2024-03-23T07:25:15;100986.00;;;10.72;68.77
69535;BME280;56754;51.568;5.048;2024-03-23T07:27:41;100984.13;;;10.73;68.59
69535;BME280;56754;51.568;5.048;2024-03-23T07:30:06;100992.63;;;10.75;68.18
69535;BME280;56754;51.568;5.048;2024-03-23T07:32:32;100984.59;;;10.75;68.10
69535;BME280;56754;51.568;5.048;2024-03-23T07:34:59;100984.28;;;10.76;68.22
69535;BME280;56754;51.568;5.048;2024-03-23T07:37:25;100987.16;;;10.80;68.53
69535;BME280;56754;51.568;5.048;2024-03-23T07:39:50;100987.63;;;10.82;69.31
69535;BME280;56754;51.568;5.048;2024-03-23T07:42:16;100986.22;;;10.84;68.11
69535;BME280;56754;51.568;5.048;2024-03-23T07:44:41;100988.03;;;10.98;70.28
69535;BME280;56754;51.568;5.048;2024-03-23T07:47:06;100987.78;;;11.16;69.46
69535;BME280;56754;51.568;5.048;2024-03-23T07:49:32;100986.13;;;11.38;69.98
69535;BME280;56754;51.568;5.048;2024-03-23T07:51:57;100987.47;;;11.58;68.91
69535;BME280;56754;51.568;5.048;2024-03-23T07:54:22;100988.59;;;11.66;68.27
69535;BME280;56754;51.568;5.048;2024-03-23T07:56:49;100990.47;;;11.74;68.25
69535;BME280;56754;51.568;5.048;2024-03-23T07:59:14;100973.03;;;11.85;67.25
69535;BME280;56754;51.568;5.048;2024-03-23T08:01:39;100967.69;;;11.94;67.72
69535;BME280;56754;51.568;5.048;2024-03-23T08:04:07;100974.47;;;12.09;68.03
69535;BME280;56754;51.568;5.048;2024-03-23T08:06:32;100982.03;;;12.24;67.09
69535;BME280;56754;51.568;5.048;2024-03-23T08:08:58;100980.31;;;12.37;66.93
69535;BME280;56754;51.568;5.048;2024-03-23T08:11:23;100971.91;;;12.47;66.77
69535;BME280;56754;51.568;5.048;2024-03-23T08:13:48;100973.81;;;12.55;65.76
69535;BME280;56754;51.568;5.048;2024-03-23T08:16:32;100982.78;;;12.59;65.33
69535;BME280;56754;51.568;5.048;2024-03-23T08:18:58;100976.31;;;12.60;64.47
69535;BME280;56754;51.568;5.048;2024-03-23T08:21:27;100979.78;;;12.61;65.65
69535;BME280;56754;51.568;5.048;2024-03-23T08:23:52;100974.72;;;12.68;65.74
69535;BME280;56754;51.568;5.048;2024-03-23T08:26:17;100973.44;;;12.74;65.76
69535;BME280;56754;51.568;5.048;2024-03-23T08:28:43;100976.72;;;12.80;64.31
69535;BME280;56754;51.568;5.048;2024-03-23T08:31:12;100975.63;;;12.81;64.00
69535;BME280;56754;51.568;5.048;2024-03-23T08:33:38;100983.34;;;12.82;64.35
69535;BME280;56754;51.568;5.048;2024-03-23T08:36:07;100977.81;;;12.87;64.30
69535;BME280;56754;51.568;5.048;2024-03-23T08:38:33;100977.31;;;12.94;64.54
69535;BME280;56754;51.568;5.048;2024-03-23T08:41:00;100986.28;;;12.98;65.05
69535;BME280;56754;51.568;5.048;2024-03-23T08:43:26;100992.91;;;13.01;63.64
69535;BME280;56754;51.568;5.048;2024-03-23T08:45:52;100988.03;;;13.03;63.82
69535;BME280;56754;51.568;5.048;2024-03-23T08:48:21;100995.75;;;13.04;63.32
69535;BME280;56754;51.568;5.048;2024-03-23T08:50:47;101001.09;;;13.04;63.74
69535;BME280;56754;51.568;5.048;2024-03-23T08:53:12;101006.66;;;13.08;63.66
69535;BME280;56754;51.568;5.048;2024-03-23T08:55:37;100998.59;;;13.08;63.21
69535;BME280;56754;51.568;5.048;2024-03-23T08:58:03;100991.00;;;13.10;62.70
69535;BME280;56754;51.568;5.048;2024-03-23T09:00:28;100999.84;;;13.10;64.69
69535;BME280;56754;51.568;5.048;2024-03-23T09:02:54;100984.50;;;13.19;64.50
69535;BME280;56754;51.568;5.048;2024-03-23T09:05:19;100978.03;;;13.12;62.57
69535;BME280;56754;51.568;5.048;2024-03-23T09:07:44;100987.25;;;13.02;61.56
69535;BME280;56754;51.568;5.048;2024-03-23T09:10:10;100980.31;;;12.92;61.94
69535;BME280;56754;51.568;5.048;2024-03-23T09:12:35;100976.72;;;12.88;62.02
69535;BME280;56754;51.568;5.048;2024-03-23T09:15:00;100973.56;;;12.86;62.29
69535;BME280;56754;51.568;5.048;2024-03-23T09:17:25;100974.06;;;12.80;61.41
69535;BME280;56754;51.568;5.048;2024-03-23T09:20:09;100975.94;;;12.79;62.13
69535;BME280;56754;51.568;5.048;2024-03-23T09:22:35;100982.44;;;12.78;61.62
69535;BME280;56754;51.568;5.048;2024-03-23T09:25:19;100972.34;;;12.75;61.49
69535;BME280;56754;51.568;5.048;2024-03-23T09:27:47;100968.06;;;12.74;60.93
69535;BME280;56754;51.568;5.048;2024-03-23T09:30:13;100969.19;;;12.73;60.53
69535;BME280;56754;51.568;5.048;2024-03-23T09:32:39;100961.94;;;12.65;59.87
69535;BME280;56754;51.568;5.048;2024-03-23T09:35:04;100969.84;;;12.61;60.16
69535;BME280;56754;51.568;5.048;2024-03-23T09:37:29;100961.31;;;12.59;60.33
69535;BME280;56754;51.568;5.048;2024-03-23T09:39:55;100966.03;;;12.62;61.23
69535;BME280;56754;51.568;5.048;2024-03-23T09:42:39;100960.38;;;12.64;58.07
69535;BME280;56754;51.568;5.048;2024-03-23T09:45:06;100960.69;;;12.62;61.37
69535;BME280;56754;51.568;5.048;2024-03-23T09:47:34;100961.47;;;12.63;61.44
69535;BME280;56754;51.568;5.048;2024-03-23T09:50:01;100960.81;;;12.66;62.03
69535;BME280;56754;51.568;5.048;2024-03-23T09:52:27;100959.75;;;12.67;60.69
69535;BME280;56754;51.568;5.048;2024-03-23T09:54:53;100969.69;;;12.66;60.51
69535;BME280;56754;51.568;5.048;2024-03-23T09:57:19;100959.91;;;12.62;60.88
69535;BME280;56754;51.568;5.048;2024-03-23T09:59:45;100959.91;;;12.62;61.96
69535;BME280;56754;51.568;5.048;2024-03-23T10:02:10;100957.22;;;12.62;61.66
69535;BME280;56754;51.568;5.048;2024-03-23T10:04:38;100952.50;;;12.59;61.79
69535;BME280;56754;51.568;5.048;2024-03-23T10:07:11;100958.50;;;12.56;61.39
69535;BME280;56754;51.568;5.048;2024-03-23T10:09:36;100979.31;;;12.59;61.72
69535;BME280;56754;51.568;5.048;2024-03-23T10:12:16;100984.19;;;12.57;62.11
69535;BME280;56754;51.568;5.048;2024-03-23T10:14:41;100993.84;;;12.58;61.41
69535;BME280;56754;51.568;5.048;2024-03-23T10:17:19;100987.50;;;12.53;61.61
69535;BME280;56754;51.568;5.048;2024-03-23T10:19:49;100988.63;;;12.52;61.67
69535;BME280;56754;51.568;5.048;2024-03-23T10:24:44;100976.00;;;12.62;63.84
69535;BME280;56754;51.568;5.048;2024-03-23T10:27:09;100982.47;;;12.61;62.49
69535;BME280;56754;51.568;5.048;2024-03-23T10:29:34;100985.31;;;12.56;60.89
69535;BME280;56754;51.568;5.048;2024-03-23T10:32:13;100979.03;;;12.51;61.00
69535;BME280;56754;51.568;5.048;2024-03-23T10:34:39;100973.66;;;12.51;61.58
69535;BME280;56754;51.568;5.048;2024-03-23T10:37:05;100968.28;;;12.51;61.35
69535;BME280;56754;51.568;5.048;2024-03-23T10:42:18;100955.06;;;12.46;61.25
69535;BME280;56754;51.568;5.048;2024-03-23T10:44:44;100948.13;;;12.45;60.83
69535;BME280;56754;51.568;5.048;2024-03-23T10:47:10;100950.81;;;12.45;61.47
69535;BME280;56754;51.568;5.048;2024-03-23T10:49:39;100943.41;;;12.42;60.11
69535;BME280;56754;51.568;5.048;2024-03-23T10:52:06;100956.63;;;12.39;59.06
69535;BME280;56754;51.568;5.048;2024-03-23T10:54:32;100964.03;;;12.33;58.59
69535;BME280;56754;51.568;5.048;2024-03-23T10:57:20;100941.50;;;12.34;60.21
69535;BME280;56754;51.568;5.048;2024-03-23T10:59:46;100953.81;;;12.35;60.22
69535;BME280;56754;51.568;5.048;2024-03-23T11:02:31;100970.03;;;12.30;55.87
69535;BME280;56754;51.568;5.048;2024-03-23T11:04:56;100954.94;;;12.25;58.24
69535;BME280;56754;51.568;5.048;2024-03-23T11:10:26;100968.00;;;12.27;59.39
69535;BME280;56754;51.568;5.048;2024-03-23T11:12:51;100970.03;;;12.30;60.45
69535;BME280;56754;51.568;5.048;2024-03-23T11:15:17;100950.19;;;12.31;59.92
69535;BME280;56754;51.568;5.048;2024-03-23T11:18:02;100961.53;;;12.28;58.94
69535;BME280;56754;51.568;5.048;2024-03-23T11:20:34;100946.56;;;12.27;59.00
69535;BME280;56754;51.568;5.048;2024-03-23T11:23:37;100944.34;;;12.29;59.01
69535;BME280;56754;51.568;5.048;2024-03-23T11:26:02;100946.25;;;12.28;58.15
69535;BME280;56754;51.568;5.048;2024-03-23T11:28:31;100951.28;;;12.30;57.83
69535;BME280;56754;51.568;5.048;2024-03-23T11:30:57;100951.91;;;12.27;57.44
69535;BME280;56754;51.568;5.048;2024-03-23T11:33:22;100951.91;;;12.27;58.58
69535;BME280;56754;51.568;5.048;2024-03-23T11:35:48;100941.19;;;12.27;57.75
69535;BME280;56754;51.568;5.048;2024-03-23T11:38:17;100951.47;;;12.25;57.54
69535;BME280;56754;51.568;5.048;2024-03-23T11:40:49;100954.78;;;12.22;57.95
69535;BME280;56754;51.568;5.048;2024-03-23T11:43:17;100947.03;;;12.20;56.57
69535;BME280;56754;51.568;5.048;2024-03-23T11:45:44;100954.28;;;12.20;58.39
69535;BME280;56754;51.568;5.048;2024-03-23T11:48:13;100937.44;;;12.19;57.63
69535;BME280;56754;51.568;5.048;2024-03-23T11:50:43;100950.06;;;12.19;57.99
69535;BME280;56754;51.568;5.048;2024-03-23T11:53:20;100940.25;;;12.23;58.43
69535;BME280;56754;51.568;5.048;2024-03-23T11:55:52;100931.44;;;12.22;58.32
69535;BME280;56754;51.568;5.048;2024-03-23T11:58:22;100936.81;;;12.14;54.74
69535;BME280;56754;51.568;5.048;2024-03-23T12:00:52;100924.66;;;12.16;58.97
69535;BME280;56754;51.568;5.048;2024-03-23T12:03:18;100931.94;;;12.16;57.51
69535;BME280;56754;51.568;5.048;2024-03-23T12:05:48;100932.56;;;12.13;58.37
69535;BME280;56754;51.568;5.048;2024-03-23T12:08:21;100945.97;;;12.13;57.02
69535;BME280;56754;51.568;5.048;2024-03-23T12:10:51;100925.31;;;12.13;58.39
69535;BME280;56754;51.568;5.048;2024-03-23T12:13:19;100945.97;;;12.13;58.41
69535;BME280;56754;51.568;5.048;2024-03-23T12:15:45;100948.31;;;12.14;58.83
69535;BME280;56754;51.568;5.048;2024-03-23T12:18:11;100961.41;;;12.16;59.31
69535;BME280;56754;51.568;5.048;2024-03-23T12:20:38;100949.88;;;12.15;59.34
69535;BME280;56754;51.568;5.048;2024-03-23T12:23:09;100936.97;;;12.17;59.93
69535;BME280;56754;51.568;5.048;2024-03-23T12:25:35;100937.75;;;12.18;59.93
69535;BME280;56754;51.568;5.048;2024-03-23T12:28:01;100932.84;;;12.20;60.41
69535;BME280;56754;51.568;5.048;2024-03-23T12:30:27;100922.91;;;12.20;60.17
69535;BME280;56754;51.568;5.048;2024-03-23T12:33:11;100923.41;;;12.22;60.42
69535;BME280;56754;51.568;5.048;2024-03-23T12:35:36;100920.72;;;12.22;60.29
69535;BME280;56754;51.568;5.048;2024-03-23T12:38:21;100923.41;;;12.22;60.68
69535;BME280;56754;51.568;5.048;2024-03-23T12:40:47;100918.50;;;12.24;60.42
69535;BME280;56754;51.568;5.048;2024-03-23T12:43:12;100923.53;;;12.26;60.67
69535;BME280;56754;51.568;5.048;2024-03-23T12:45:37;100918.66;;;12.28;61.03
69535;BME280;56754;51.568;5.048;2024-03-23T12:48:03;100926.84;;;12.32;60.68
69535;BME280;56754;51.568;5.048;2024-03-23T12:50:28;100923.84;;;12.33;61.07
69535;BME280;56754;51.568;5.048;2024-03-23T12:52:55;100933.94;;;12.36;61.20
69535;BME280;56754;51.568;5.048;2024-03-23T12:55:20;100921.78;;;12.39;61.18
69535;BME280;56754;51.568;5.048;2024-03-23T12:57:45;100918.00;;;12.40;61.53
69535;BME280;56754;51.568;5.048;2024-03-23T13:00:16;100919.59;;;12.41;61.50
69535;BME280;56754;51.568;5.048;2024-03-23T13:02:42;100907.28;;;12.40;60.98
69535;BME280;56754;51.568;5.048;2024-03-23T13:05:26;100905.69;;;12.39;60.78
69535;BME280;56754;51.568;5.048;2024-03-23T13:07:52;100926.38;;;12.38;60.59
69535;BME280;56754;51.568;5.048;2024-03-23T13:10:17;100911.84;;;12.39;60.48
69535;BME280;56754;51.568;5.048;2024-03-23T13:12:43;100907.59;;;12.38;60.11
69535;BME280;56754;51.568;5.048;2024-03-23T13:15:08;100910.63;;;12.37;60.05
69535;BME280;56754;51.568;5.048;2024-03-23T13:17:34;100898.00;;;12.37;60.67
69535;BME280;56754;51.568;5.048;2024-03-23T13:20:00;100901.94;;;12.40;60.57
69535;BME280;56754;51.568;5.048;2024-03-23T13:22:26;100895.75;;;12.39;60.16
69535;BME280;56754;51.568;5.048;2024-03-23T13:24:51;100901.94;;;12.40;60.30
69535;BME280;56754;51.568;5.048;2024-03-23T13:27:16;100895.75;;;12.39;60.11
69535;BME280;56754;51.568;5.048;2024-03-23T13:29:43;100890.41;;;12.39;60.39
69535;BME280;56754;51.568;5.048;2024-03-23T13:32:08;100892.00;;;12.40;60.90
69535;BME280;56754;51.568;5.048;2024-03-23T13:34:34;100890.09;;;12.41;60.31
69535;BME280;56754;51.568;5.048;2024-03-23T13:36:59;100893.06;;;12.39;60.03
69535;BME280;56754;51.568;5.048;2024-03-23T13:39:25;100878.59;;;12.40;60.38
69535;BME280;56754;51.568;5.048;2024-03-23T13:41:50;100879.06;;;12.42;61.07
69535;BME280;56754;51.568;5.048;2024-03-23T13:44:16;100866.44;;;12.43;60.59
69535;BME280;56754;51.568;5.048;2024-03-23T13:46:42;100858.53;;;12.46;60.94
69535;BME280;56754;51.568;5.048;2024-03-23T13:49:07;100864.03;;;12.50;61.80
69535;BME280;56754;51.568;5.048;2024-03-23T13:51:33;100861.50;;;12.53;61.83